Terminal Aerodrome Forecast
Issued by NWS

Home | Current Version | Previous Version | Text Only | Print | Product List | Glossary On
Versions: 1 2 3 4 5 6 7 8 9 10 11 12
834
FTUS46 KSTO 270520
TAFSCK
TAF
KSCK 270520Z 2706/2806 32007KT P6SM SKC
     FM270800 VRB04KT P6SM SKC
     FM272100 30008KT P6SM SKC=

USA.gov is the U.S. government's official web portal to all federal, state and local government web resources and services.